Terminal Aerodrome Forecast
Issued by NWS Austin/San Antonio, TX

Home | Current Version | Previous Version | Text Only | Print | Product List | Glossary On
Versions: 1 2 3 4 5 6 7 8 9 10 11 12 13 14 15
069
FTUS44 KEWX 232320
TAFSAT
TAF
KSAT 232320Z 2400/2506 33018KT P6SM VCSH SCT080 SCT250
     FM240200 19008KT P6SM SCT250
     FM241500 19015KT P6SM FEW080 SCT250=

USA.gov is the U.S. government's official web portal to all federal, state and local government web resources and services.